Gaylord, MI (49734)

7:22 PM EST on February 06, 2016 (GMT -0500)
Castlewood Drive | | Change Station
CLOSE
Current Station
Personal Weather Station
Location: Gaylord, MI
Elevation: 1315 ft
Nearby Weather Stations

Elev 1315 ft 44.99 °N, 84.66 °W | Updated 1 minute ago

Overcast
Overcast
26.7 °F
Feels Like 27 °F
N
0.0
Wind Variable Wind from South
Gusts 0.0 mph

Today
High -- | Low -- °F
--% Chance of Precip.
Yesterday
High -- | Low -- °F
Precip. -- in
Pressure 30.03 in
Visibility 8.0 miles
Clouds Scattered Clouds 1300 ft
Overcast 1800 ft
Windchill 27 °F
Dew Point 24 °F
Humidity 91%
Rainfall 0.00 in
Snow Depth Not available.
7:52 AM 5:53 PM
Waning Crescent, 3% visible
SPECI KGLR 070011Z AUTO 22008KT 8SM SCT013 OVC018 M03/M05 A3003 RMK AO2 T10281050
Pressure 30.03 in
Visibility 8.0 miles
Clouds Scattered Clouds 1300 ft
Overcast 1800 ft
Windchill 27 °F
Dew Point 24 °F
Humidity 91%
Rainfall 0.00 in
Snow Depth Not available.
7:52 AM 5:53 PM
Waning Crescent, 3% visible
SPECI KGLR 070011Z AUTO 22008KT 8SM SCT013 OVC018 M03/M05 A3003 RMK AO2 T10281050

10-Day Weather Forecast

Almanac

Astronomy

Feb. 06, 2016 Rise Set
Actual Time
Civil Twilight
Nautical Twilight
Astronomical Twilight
Moon
Length of Visible Light
Length of Day
Tomorrow will be .
, % of the Moon is Illuminated

Today's Extremes

State Highs State Lows

Community

WunderPhotos

Upload Photos

1,891,106 photos uploaded!

WunderBlog® & News

Nearby

Air Quality

  Air Quality AQ Index Pollutant
Not available.

Snow Depth

Station Depth Elevation

Earthquake Activity

City Distance Mag. Time & Date
Minimum magnitude displayed is 2.5.

Coastal Water Temperatures

Place Temperature

Stations

Nearby Weather Stations

Station Location Temp. Windchill Dew Point Humidity Wind Precip. Elev Updated Type
                   

Watches & Warnings

There are currently no watches in effect.